Weather at Butler Co Regional Airport - Hogan Field

Public forecast

Using degrees Fahrenheit for public forecast. Weather courtesy of forecast.io.

Current aviation weather report (METAR) for Butler Co Regional Airport - Hogan Field

Retrieved 2020/11/27 08:53 UTC (54 minutes ago):

KHAO 270853Z AUTO 00000KT 10SM OVC025 09/06 A3013 RMK AO2 SLP204 T00890056 53004

Closest aviation forecast (TAF) to Butler Co Regional Airport - Hogan Field

Closest forecast is Cincinnati Municipal Airport Lunken Field, 16.4 nm (30.3 km) SSE. Retrieved 2020/11/27 06:10 UTC (4 hours ago):

TAF KLUK 270540Z 2706/2806 19003KT P6SM OVC025 FM271000 00000KT P6SM VCSH OVC018 FM271400 24004KT P6SM OVC022 FM271800 22005KT P6SM BKN100 FM280400 31004KT P6SM BKN030 AMD NOT SKED